createdAt,value
2019-04-04T00:02:05.799Z,33.83
2019-04-04T00:04:39.234Z,30.40
2019-04-04T00:07:12.582Z,24.55
2019-04-04T00:09:45.959Z,28.32
2019-04-04T00:12:20.393Z,32.25
2019-04-04T00:14:53.891Z,30.08
2019-04-04T00:17:28.490Z,34.38
2019-04-04T00:20:09.098Z,28.73
2019-04-04T00:22:46.654Z,31.23
2019-04-04T00:25:21.243Z,31.87
2019-04-04T00:27:54.606Z,36.17
2019-04-04T00:30:29.042Z,32.67
2019-04-04T00:33:02.613Z,39.13
2019-04-04T00:35:36.005Z,33.00
2019-04-04T00:38:11.069Z,36.23
2019-04-04T00:40:44.582Z,36.13
2019-04-04T00:43:20.734Z,32.85
2019-04-04T00:45:54.140Z,36.05
2019-04-04T00:48:27.450Z,39.98
2019-04-04T00:51:00.855Z,43.42
2019-04-04T00:53:35.283Z,37.03
2019-04-04T00:56:08.674Z,39.23
2019-04-04T00:58:43.020Z,35.13
2019-04-04T01:01:16.642Z,41.55
2019-04-04T01:03:50.164Z,39.83
2019-04-04T01:06:23.543Z,48.35
2019-04-04T01:08:56.912Z,45.05
2019-04-04T01:14:10.810Z,40.38
2019-04-04T01:16:44.191Z,35.38
2019-04-04T01:19:20.413Z,33.00
2019-04-04T01:21:55.675Z,32.23
2019-04-04T01:24:32.564Z,35.70
2019-04-04T01:27:06.828Z,30.57
2019-04-04T01:29:40.876Z,32.30
2019-04-04T01:32:41.194Z,27.40
2019-04-04T01:35:14.571Z,31.50
2019-04-04T01:37:47.951Z,30.80
2019-04-04T01:40:25.544Z,37.67
2019-04-04T01:42:59.099Z,35.70
2019-04-04T01:45:32.461Z,38.05
2019-04-04T01:48:05.854Z,34.40
2019-04-04T01:50:39.251Z,39.57
2019-04-04T01:53:12.673Z,40.73
2019-04-04T01:55:47.022Z,40.93
2019-04-04T02:01:48.274Z,38.47
2019-04-04T02:04:33.429Z,37.93
2019-04-04T02:07:06.903Z,42.30
2019-04-04T02:09:43.233Z,40.63
2019-04-04T02:12:15.493Z,40.47
2019-04-04T02:14:48.840Z,38.73
2019-04-04T02:17:25.192Z,40.70
2019-04-04T02:19:58.623Z,37.83
2019-04-04T02:22:33.191Z,40.80
2019-04-04T02:25:08.052Z,31.87
2019-04-04T02:27:41.450Z,38.53
2019-04-04T02:30:48.183Z,37.77
2019-04-04T02:33:20.606Z,32.33
2019-04-04T02:35:54.073Z,35.63
2019-04-04T02:38:28.279Z,35.90
2019-04-04T02:41:01.663Z,42.90
2019-04-04T02:43:35.082Z,40.23
2019-04-04T02:46:10.997Z,42.90
2019-04-04T02:48:43.593Z,39.53
2019-04-04T02:51:40.161Z,39.90
2019-04-04T02:54:12.985Z,41.83
2019-04-04T02:56:46.443Z,38.53
2019-04-04T02:59:21.625Z,39.93
2019-04-04T03:05:03.050Z,41.33
2019-04-04T03:07:36.450Z,37.90
2019-04-04T03:10:15.198Z,47.13
2019-04-04T03:12:58.499Z,36.83
2019-04-04T03:15:31.663Z,47.03
2019-04-04T03:18:05.551Z,45.73
2019-04-04T03:20:39.993Z,41.83
2019-04-04T03:23:13.404Z,40.00
2019-04-04T03:25:47.291Z,41.87
2019-04-04T03:28:21.452Z,39.23
2019-04-04T03:31:06.055Z,39.43
2019-04-04T03:33:39.552Z,34.50
2019-04-04T03:36:15.016Z,46.30
2019-04-04T03:38:55.474Z,49.53
2019-04-04T03:41:30.604Z,36.63
2019-04-04T03:44:04.059Z,36.97
2019-04-04T03:46:39.130Z,35.37
2019-04-04T03:49:12.569Z,39.30
2019-04-04T03:51:46.223Z,36.67
2019-04-04T03:54:23.294Z,30.47
2019-04-04T03:56:56.258Z,36.27
2019-04-04T03:59:32.519Z,31.53
2019-04-04T04:02:05.908Z,40.53
2019-04-04T04:04:39.455Z,35.50
2019-04-04T04:07:15.169Z,33.07
2019-04-04T04:09:47.902Z,40.60
2019-04-04T04:12:42.593Z,40.73
2019-04-04T04:15:13.932Z,40.63
2019-04-04T04:17:49.193Z,36.97
2019-04-04T04:20:23.655Z,40.67
2019-04-04T04:22:58.274Z,39.07
2019-04-04T04:25:35.770Z,31.93
2019-04-04T04:28:07.999Z,38.93
2019-04-04T04:30:41.505Z,31.93
2019-04-04T04:33:14.961Z,31.37
2019-04-04T04:35:48.393Z,33.53
2019-04-04T04:38:25.212Z,31.60
2019-04-04T04:40:58.867Z,32.27
2019-04-04T04:43:33.653Z,33.63
2019-04-04T04:46:07.252Z,32.20
2019-04-04T04:48:40.658Z,34.13
2019-04-04T04:51:14.137Z,57.07
2019-04-04T04:53:48.240Z,34.53
2019-04-04T04:56:22.561Z,34.70
2019-04-04T04:58:55.961Z,33.23
2019-04-04T05:01:29.319Z,33.90
2019-04-04T05:04:02.821Z,30.87
2019-04-04T05:06:36.482Z,35.97
2019-04-04T05:09:09.908Z,37.10
2019-04-04T05:11:43.328Z,34.80
2019-04-04T05:14:16.743Z,33.37
2019-04-04T05:16:51.320Z,31.63
2019-04-04T05:19:24.721Z,40.27
2019-04-04T05:21:58.234Z,58.07
2019-04-04T05:24:31.651Z,39.50
2019-04-04T05:27:06.157Z,69.43
2019-04-04T05:29:40.015Z,61.73
2019-04-04T05:32:13.403Z,50.40
2019-04-04T05:34:48.003Z,152.60
2019-04-04T05:37:21.391Z,304.13
2019-04-04T05:39:57.594Z,203.37
2019-04-04T05:42:33.033Z,54.33
2019-04-04T05:45:08.373Z,217.47
2019-04-04T05:47:41.795Z,253.10
2019-04-04T05:50:16.505Z,98.43
2019-04-04T05:52:50.053Z,41.20
2019-04-04T05:55:24.665Z,98.43
2019-04-04T05:57:58.027Z,65.53
2019-04-04T06:00:32.441Z,60.03
2019-04-04T06:03:06.953Z,42.67
2019-04-04T06:05:40.487Z,32.03
2019-04-04T06:08:13.858Z,32.73
2019-04-04T06:10:50.122Z,37.35
2019-04-04T06:13:26.712Z,33.13
2019-04-04T06:16:02.071Z,36.07
2019-04-04T06:18:35.434Z,33.40
2019-04-04T06:21:08.843Z,41.65
2019-04-04T06:23:42.207Z,54.67
2019-04-04T06:26:15.661Z,34.98
2019-04-04T06:28:49.081Z,32.48
2019-04-04T06:31:30.673Z,38.13
2019-04-04T06:34:02.249Z,34.43
2019-04-04T06:36:35.802Z,31.65
2019-04-04T06:39:09.321Z,31.90
2019-04-04T06:41:42.741Z,39.18
2019-04-04T06:44:16.128Z,25.85
2019-04-04T06:46:53.168Z,37.13
2019-04-04T06:49:24.620Z,34.63
2019-04-04T06:51:58.042Z,34.45
2019-04-04T06:54:31.450Z,31.82
2019-04-04T06:57:05.937Z,37.25
2019-04-04T06:59:42.991Z,34.55
2019-04-04T07:02:14.233Z,32.50
2019-04-04T07:04:47.610Z,30.12
2019-04-04T07:07:21.100Z,34.15
2019-04-04T07:09:54.571Z,39.78
2019-04-04T07:12:28.609Z,32.28
2019-04-04T07:15:02.170Z,29.15
2019-04-04T07:17:40.024Z,34.30
2019-04-04T07:20:11.973Z,31.62
2019-04-04T07:22:46.398Z,27.80
2019-04-04T07:25:19.892Z,24.85
2019-04-04T07:27:53.290Z,31.07
2019-04-04T07:30:28.397Z,33.30
2019-04-04T07:33:03.141Z,27.20
2019-04-04T07:35:36.622Z,34.78
2019-04-04T07:38:10.073Z,30.70
2019-04-04T07:40:43.541Z,27.02
2019-04-04T07:43:18.932Z,30.68
2019-04-04T07:45:51.988Z,32.42
2019-04-04T07:48:28.389Z,25.92
2019-04-04T07:51:01.882Z,31.10
2019-04-04T07:53:36.381Z,27.32
2019-04-04T07:56:13.887Z,27.32
2019-04-04T07:58:45.592Z,26.12
2019-04-04T08:01:20.078Z,23.52
2019-04-04T08:03:53.579Z,25.57
2019-04-04T08:06:26.974Z,29.67
2019-04-04T08:09:01.664Z,26.42
2019-04-04T08:11:36.367Z,27.93
2019-04-04T08:14:10.943Z,30.50
2019-04-04T08:16:44.428Z,27.10
2019-04-04T08:19:17.858Z,35.10
2019-04-04T08:21:52.249Z,26.68
2019-04-04T08:24:25.679Z,27.17
2019-04-04T08:27:03.295Z,25.88
2019-04-04T08:29:36.693Z,28.52
2019-04-04T08:32:10.083Z,28.73
2019-04-04T08:34:44.513Z,25.77
2019-04-04T08:37:17.884Z,27.75
2019-04-04T08:39:51.302Z,25.50
2019-04-04T08:42:24.932Z,26.48
2019-04-04T08:44:58.462Z,24.23
2019-04-04T08:47:31.933Z,27.40
2019-04-04T08:50:06.269Z,24.75
2019-04-04T08:52:39.723Z,26.02
2019-04-04T08:55:13.151Z,23.65
2019-04-04T08:57:47.721Z,26.00
2019-04-04T09:00:21.351Z,29.10
2019-04-04T09:02:55.749Z,27.85
2019-04-04T09:05:29.147Z,27.37
2019-04-04T09:08:02.660Z,24.45
2019-04-04T09:10:37.025Z,26.35
2019-04-04T09:13:10.574Z,25.90
2019-04-04T09:15:43.914Z,25.15
2019-04-04T09:18:17.434Z,29.52
2019-04-04T09:20:51.843Z,25.85
2019-04-04T09:23:26.450Z,26.42
2019-04-04T09:26:05.583Z,22.90
2019-04-04T09:28:34.983Z,27.73
2019-04-04T09:31:08.393Z,24.55
2019-04-04T09:33:41.950Z,25.37
2019-04-04T09:36:16.296Z,25.08
2019-04-04T09:38:49.880Z,28.98
2019-04-04T09:41:23.261Z,26.75
2019-04-04T09:43:56.772Z,23.73
2019-04-04T09:46:31.337Z,22.20
2019-04-04T09:49:05.993Z,24.30
2019-04-04T09:51:39.409Z,22.13
2019-04-04T09:54:12.819Z,26.68
2019-04-04T09:56:46.588Z,21.68
2019-04-04T09:59:19.971Z,21.62
2019-04-04T10:01:53.358Z,28.07
2019-04-04T10:04:27.800Z,22.73
2019-04-04T10:07:02.432Z,26.00
2019-04-04T10:09:35.945Z,21.48
2019-04-04T10:12:10.530Z,32.83
2019-04-04T10:14:44.103Z,21.73
2019-04-04T10:17:17.572Z,18.62
2019-04-04T10:19:51.104Z,19.73
2019-04-04T10:22:26.492Z,21.68
2019-04-04T10:24:59.554Z,22.95
2019-04-04T10:27:34.125Z,26.90
2019-04-04T10:30:11.471Z,23.15
2019-04-04T10:32:44.904Z,21.93
2019-04-04T10:35:18.589Z,17.73
2019-04-04T10:37:52.034Z,23.10
2019-04-04T10:40:25.632Z,22.65
2019-04-04T10:43:00.298Z,21.55
2019-04-04T10:45:33.841Z,26.77
2019-04-04T10:48:08.317Z,21.75
2019-04-04T10:50:41.770Z,25.20
2019-04-04T10:53:15.247Z,28.42
2019-04-04T10:55:48.650Z,22.00
2019-04-04T10:58:23.693Z,28.92
2019-04-04T11:00:59.335Z,22.82
2019-04-04T11:03:32.717Z,20.95
2019-04-04T11:06:06.244Z,25.50
2019-04-04T11:08:39.774Z,22.52
2019-04-04T11:11:13.218Z,19.02
2019-04-04T11:13:47.875Z,24.32
2019-04-04T11:16:30.140Z,20.12
2019-04-04T11:18:56.582Z,23.00
2019-04-04T11:21:30.105Z,21.48
2019-04-04T11:24:11.798Z,18.07
2019-04-04T11:26:45.332Z,20.52
2019-04-04T11:29:18.752Z,16.93
2019-04-04T11:31:52.274Z,17.60
2019-04-04T11:34:26.013Z,19.70
2019-04-04T11:36:59.472Z,25.30
2019-04-04T11:39:32.847Z,21.70
2019-04-04T11:42:06.333Z,18.37
2019-04-04T11:44:41.011Z,22.75
2019-04-04T11:47:14.527Z,22.45
2019-04-04T11:49:47.935Z,16.67
2019-04-04T11:52:21.407Z,16.85
2019-04-04T11:54:58.710Z,19.15
2019-04-04T11:57:33.309Z,23.73
2019-04-04T12:00:09.614Z,20.20
2019-04-04T12:02:43.133Z,22.17
2019-04-04T12:05:16.525Z,20.02
2019-04-04T12:07:50.050Z,24.05
2019-04-04T12:10:23.539Z,20.62
2019-04-04T12:12:58.576Z,18.32
2019-04-04T12:15:32.331Z,21.27
2019-04-04T12:18:05.794Z,17.75
2019-04-04T12:20:39.178Z,19.52
2019-04-04T12:23:12.679Z,22.17
2019-04-04T12:25:46.072Z,17.95
2019-04-04T12:28:19.583Z,22.62
2019-04-04T12:30:52.889Z,20.10
2019-04-04T12:33:26.366Z,25.88
2019-04-04T12:35:59.821Z,18.98
2019-04-04T12:38:33.305Z,18.23
2019-04-04T12:41:06.852Z,27.27
2019-04-04T12:43:40.318Z,23.07
2019-04-04T12:46:13.808Z,20.25
2019-04-04T12:48:48.249Z,17.73
2019-04-04T12:51:21.673Z,21.95
2019-04-04T12:53:55.104Z,20.17
2019-04-04T12:56:31.199Z,21.70
2019-04-04T12:59:04.645Z,16.65
2019-04-04T13:01:38.029Z,21.40
2019-04-04T13:04:11.619Z,20.92
2019-04-04T13:06:45.142Z,20.72
2019-04-04T13:09:19.889Z,24.40
2019-04-04T13:11:53.351Z,22.35
2019-04-04T13:14:26.796Z,20.15
2019-04-04T13:17:01.420Z,19.37
2019-04-04T13:19:34.840Z,23.40
2019-04-04T13:22:08.387Z,22.75
2019-04-04T13:24:41.884Z,18.42
2019-04-04T13:27:17.619Z,17.57
2019-04-04T13:29:50.463Z,20.08
2019-04-04T13:32:23.933Z,18.42
2019-04-04T13:34:59.401Z,18.92
2019-04-04T13:37:32.562Z,16.85
2019-04-04T13:40:08.094Z,18.42
2019-04-04T13:42:41.494Z,20.40
2019-04-04T13:45:15.090Z,21.60
2019-04-04T13:47:48.613Z,18.82
2019-04-04T13:50:22.132Z,22.37
2019-04-04T13:52:55.573Z,26.85
2019-04-04T13:55:29.134Z,21.20
2019-04-04T13:58:02.639Z,18.95
2019-04-04T14:00:36.142Z,19.95
2019-04-04T14:03:09.630Z,15.68
2019-04-04T14:05:43.024Z,19.30
2019-04-04T14:08:16.606Z,22.10
2019-04-04T14:10:58.048Z,22.50
2019-04-04T14:13:26.264Z,18.62
2019-04-04T14:16:00.079Z,17.02
2019-04-04T14:18:39.909Z,19.77
2019-04-04T14:21:08.810Z,22.22
2019-04-04T14:23:45.184Z,17.60
2019-04-04T14:26:17.401Z,19.45
2019-04-04T14:28:50.913Z,18.70
2019-04-04T14:31:24.430Z,18.42
2019-04-04T14:33:57.943Z,24.12
2019-04-04T14:36:31.317Z,19.35
2019-04-04T14:39:06.944Z,20.77
2019-04-04T14:41:40.486Z,20.40
2019-04-04T14:44:15.606Z,18.77
2019-04-04T14:46:50.453Z,18.17
2019-04-04T14:49:24.371Z,20.88
2019-04-04T14:51:57.959Z,27.90
2019-04-04T14:54:31.412Z,19.07
2019-04-04T14:57:04.922Z,18.55
2019-04-04T14:59:38.482Z,20.65
2019-04-04T15:02:12.152Z,21.05
2019-04-04T15:04:45.874Z,29.90
2019-04-04T15:07:20.412Z,22.82
2019-04-04T15:09:53.884Z,27.02
2019-04-04T15:12:27.466Z,18.12
2019-04-04T15:15:02.078Z,24.60
2019-04-04T15:17:35.505Z,22.10
2019-04-04T15:20:09.499Z,22.13
2019-04-04T15:22:42.955Z,19.40
2019-04-04T15:25:18.644Z,35.40
2019-04-04T15:27:52.138Z,19.67
2019-04-04T15:30:25.752Z,20.57
2019-04-04T15:32:59.338Z,22.00
2019-04-04T15:35:32.826Z,23.65
2019-04-04T15:38:06.213Z,27.30
2019-04-04T15:40:39.723Z,21.40
2019-04-04T15:43:13.163Z,21.20
2019-04-04T15:45:46.704Z,22.37
2019-04-04T15:48:20.224Z,22.17
2019-04-04T15:50:54.025Z,22.37
2019-04-04T15:53:28.633Z,23.25
2019-04-04T15:56:02.073Z,22.48
2019-04-04T15:58:35.607Z,19.48
2019-04-04T16:01:13.121Z,21.73
2019-04-04T16:03:46.613Z,30.92
2019-04-04T16:06:20.206Z,25.12
2019-04-04T16:08:53.625Z,21.50
2019-04-04T16:11:27.043Z,29.30
2019-04-04T16:14:01.539Z,20.25
2019-04-04T16:16:38.404Z,31.97
2019-04-04T16:19:11.782Z,21.55
2019-04-04T16:21:45.326Z,18.98
2019-04-04T16:24:18.813Z,19.20
2019-04-04T16:26:52.350Z,21.45
2019-04-04T16:29:25.702Z,26.10
2019-04-04T16:31:59.136Z,22.07
2019-04-04T16:34:32.644Z,28.57
2019-04-04T16:37:06.183Z,23.50
2019-04-04T16:39:40.652Z,27.50
2019-04-04T16:42:14.149Z,30.30
2019-04-04T16:44:47.823Z,23.57
2019-04-04T16:47:21.468Z,25.32
2019-04-04T16:49:55.777Z,24.72
2019-04-04T16:52:29.323Z,20.12
2019-04-04T16:55:02.785Z,21.00
2019-04-04T16:57:36.332Z,22.52
2019-04-04T17:00:14.037Z,25.97
2019-04-04T17:02:47.710Z,22.80
2019-04-04T17:05:21.230Z,24.37
2019-04-04T17:07:54.794Z,23.95
2019-04-04T17:10:28.419Z,198.20
2019-04-04T17:13:01.826Z,24.57
2019-04-04T17:15:35.361Z,44.18
2019-04-04T17:18:10.173Z,30.27
2019-04-04T17:20:43.548Z,28.85
2019-04-04T17:23:16.993Z,24.55
2019-04-04T17:25:50.467Z,29.18
2019-04-04T17:28:24.194Z,33.50
2019-04-04T17:30:57.733Z,24.75
2019-04-04T17:33:31.152Z,30.70
2019-04-04T17:36:04.912Z,32.03
2019-04-04T17:38:38.483Z,26.57
2019-04-04T17:41:12.082Z,33.50
2019-04-04T17:43:46.093Z,45.45
2019-04-04T17:46:19.590Z,34.23
2019-04-04T17:48:54.242Z,30.65
2019-04-04T17:51:28.309Z,29.35
2019-04-04T17:54:01.813Z,25.15
2019-04-04T17:56:36.567Z,24.72
2019-04-04T17:59:10.146Z,28.80
2019-04-04T18:01:43.580Z,26.65
2019-04-04T18:04:17.265Z,25.48
2019-04-04T18:06:50.633Z,32.38
2019-04-04T18:09:31.585Z,34.33
2019-04-04T18:12:01.083Z,37.75
2019-04-04T18:14:34.503Z,40.43
2019-04-04T18:17:09.083Z,29.30
2019-04-04T18:19:42.520Z,32.85
2019-04-04T18:22:15.981Z,25.95
2019-04-04T18:24:49.379Z,29.85
2019-04-04T18:27:22.803Z,36.45
2019-04-04T18:29:56.341Z,31.33
2019-04-04T18:32:29.716Z,48.02
2019-04-04T18:35:05.099Z,34.35
2019-04-04T18:37:38.636Z,32.45
2019-04-04T18:40:12.602Z,24.23
2019-04-04T18:42:53.294Z,66.80
2019-04-04T18:45:21.540Z,30.85
2019-04-04T18:47:55.085Z,30.45
2019-04-04T18:50:34.451Z,29.25
2019-04-04T18:53:05.005Z,41.15
2019-04-04T18:55:39.223Z,37.42
2019-04-04T18:58:12.643Z,24.05
2019-04-04T19:00:47.365Z,38.20
2019-04-04T19:03:20.933Z,31.75
2019-04-04T19:05:54.500Z,40.95
2019-04-04T19:08:29.057Z,36.77
2019-04-04T19:11:02.401Z,41.18
2019-04-04T19:13:44.160Z,31.12
2019-04-04T19:16:10.853Z,28.67
2019-04-04T19:18:44.293Z,26.80
2019-04-04T19:21:17.612Z,32.28
2019-04-04T19:23:50.968Z,47.03
2019-04-04T19:26:24.424Z,45.25
2019-04-04T19:28:57.864Z,32.10
2019-04-04T19:31:32.370Z,39.30
2019-04-04T19:34:05.931Z,35.05
2019-04-04T19:36:41.759Z,47.35
2019-04-04T19:39:17.231Z,46.88
2019-04-04T19:41:51.196Z,37.15
2019-04-04T19:44:24.550Z,26.80
2019-04-04T19:47:06.301Z,46.63
2019-04-04T19:49:40.773Z,39.42
2019-04-04T19:52:14.306Z,34.65
2019-04-04T19:54:47.936Z,30.17
2019-04-04T19:57:21.466Z,33.75
2019-04-04T19:59:54.846Z,34.00
2019-04-04T20:02:28.448Z,54.33
2019-04-04T20:05:01.921Z,56.15
2019-04-04T20:07:35.495Z,61.53
2019-04-04T20:10:11.078Z,48.68
2019-04-04T20:12:45.739Z,36.28
2019-04-04T20:15:19.294Z,39.00
2019-04-04T20:17:52.783Z,40.35
2019-04-04T20:20:26.196Z,32.70
2019-04-04T20:22:59.624Z,44.33
2019-04-04T20:25:33.022Z,51.90
2019-04-04T20:28:06.485Z,39.18
2019-04-04T20:30:41.063Z,36.40
2019-04-04T20:33:14.413Z,48.80
2019-04-04T20:35:47.926Z,43.38
2019-04-04T20:38:21.421Z,44.75
2019-04-04T20:40:54.782Z,46.50
2019-04-04T20:43:28.309Z,42.00
2019-04-04T20:46:01.762Z,38.05
2019-04-04T20:48:35.352Z,42.83
2019-04-04T20:51:08.816Z,41.45
2019-04-04T20:53:42.236Z,46.60
2019-04-04T20:56:15.615Z,38.53
2019-04-04T20:58:49.148Z,46.95
2019-04-04T21:01:23.731Z,33.60
2019-04-04T21:03:57.134Z,38.35
2019-04-04T21:06:30.510Z,39.50
2019-04-04T21:09:04.938Z,40.28
2019-04-04T21:11:39.491Z,38.50
2019-04-04T21:14:12.963Z,39.83
2019-04-04T21:16:46.644Z,42.95
2019-04-04T21:19:20.170Z,41.45
2019-04-04T21:21:56.679Z,39.48
2019-04-04T21:24:30.088Z,43.68
2019-04-04T21:27:04.664Z,39.08
2019-04-04T21:29:38.088Z,36.65
2019-04-04T21:32:11.470Z,34.10
2019-04-04T21:34:47.518Z,39.30
2019-04-04T21:37:20.893Z,37.67
2019-04-04T21:39:54.337Z,38.33
2019-04-04T21:42:27.819Z,39.73
2019-04-04T21:45:02.424Z,36.68
2019-04-04T21:47:35.825Z,39.73
2019-04-04T21:50:10.388Z,38.95
2019-04-04T21:52:43.859Z,40.15
2019-04-04T21:55:17.380Z,38.00
2019-04-04T21:57:51.911Z,38.85
2019-04-04T22:00:27.063Z,39.27
2019-04-04T22:03:02.064Z,36.68
2019-04-04T22:05:36.618Z,38.45
2019-04-04T22:08:11.242Z,40.60
2019-04-04T22:10:44.814Z,34.20
2019-04-04T22:13:18.351Z,46.53
2019-04-04T22:15:51.883Z,49.40
2019-04-04T22:18:25.232Z,59.25
2019-04-04T22:20:58.745Z,56.73
2019-04-04T22:24:03.416Z,61.77
2019-04-04T22:26:36.924Z,60.45
2019-04-04T22:29:10.535Z,61.10
2019-04-04T22:31:43.928Z,57.13
2019-04-04T22:34:18.464Z,69.60
2019-04-04T22:36:59.902Z,65.45
2019-04-04T22:39:33.443Z,67.95
2019-04-04T22:42:06.796Z,61.60
2019-04-04T22:44:40.303Z,64.85
2019-04-04T22:47:13.661Z,68.07
2019-04-04T22:49:47.038Z,63.25
2019-04-04T22:52:20.442Z,67.65
2019-04-04T22:54:53.841Z,61.58
2019-04-04T22:57:27.302Z,63.65
2019-04-04T23:00:00.784Z,62.30
2019-04-04T23:02:35.705Z,66.85
2019-04-04T23:05:09.401Z,66.50
2019-04-04T23:07:42.773Z,59.27
2019-04-04T23:16:22.762Z,55.12
2019-04-04T23:18:56.216Z,58.15
2019-04-04T23:21:47.636Z,53.08
2019-04-04T23:24:21.079Z,54.15
2019-04-04T23:26:54.522Z,50.08
2019-04-04T23:29:27.858Z,47.10
2019-04-04T23:34:57.392Z,53.83
2019-04-04T23:37:30.806Z,137.90
2019-04-04T23:40:04.585Z,78.62
2019-04-04T23:42:37.958Z,175.18
2019-04-04T23:45:16.010Z,438.40
2019-04-04T23:47:49.426Z,1041.10
2019-04-04T23:50:29.214Z,710.67
2019-04-04T23:53:02.716Z,319.43
2019-04-04T23:55:36.159Z,92.90
2019-04-04T23:58:09.514Z,75.72
